createdAt,value
2023-11-06T00:00:01.300Z,141.30
2023-11-06T00:00:34.534Z,139.90
2023-11-06T00:01:06.977Z,141.35
2023-11-06T00:01:39.376Z,139.88
2023-11-06T00:02:11.700Z,139.80
2023-11-06T00:02:44.640Z,139.38
2023-11-06T00:03:17.218Z,140.40
2023-11-06T00:03:49.612Z,141.38
2023-11-06T00:04:22.038Z,139.95
2023-11-06T00:04:59.399Z,138.85
2023-11-06T00:05:32.142Z,139.98
2023-11-06T00:06:05.136Z,141.50
2023-11-06T00:06:38.117Z,140.45
2023-11-06T00:07:10.424Z,140.93
2023-11-06T00:07:42.768Z,139.25
2023-11-06T00:08:16.205Z,140.95
2023-11-06T00:08:48.846Z,138.63
2023-11-06T00:09:21.380Z,142.07
2023-11-06T00:09:53.666Z,140.93
2023-11-06T00:10:25.976Z,139.05
2023-11-06T00:10:58.384Z,139.30
2023-11-06T00:11:30.836Z,139.93
2023-11-06T00:12:04.224Z,141.07
2023-11-06T00:12:40.371Z,139.50
2023-11-06T00:13:13.072Z,140.45
2023-11-06T00:13:45.449Z,140.90
2023-11-06T00:14:17.923Z,140.02
2023-11-06T00:14:50.497Z,141.63
2023-11-06T00:15:22.809Z,140.95
2023-11-06T00:15:55.113Z,139.88
2023-11-06T00:16:29.463Z,140.93
2023-11-06T00:17:02.162Z,140.38
2023-11-06T00:17:34.868Z,140.35
2023-11-06T00:18:07.300Z,138.75
2023-11-06T00:18:39.919Z,140.75
2023-11-06T00:19:13.483Z,139.20
2023-11-06T00:19:45.841Z,139.18
2023-11-06T00:20:18.405Z,141.52
2023-11-06T00:20:50.906Z,140.75
2023-11-06T00:21:27.819Z,139.68
2023-11-06T00:22:01.266Z,140.20
2023-11-06T00:22:34.412Z,139.57
2023-11-06T00:23:07.067Z,140.02
2023-11-06T00:23:39.639Z,138.98
2023-11-06T00:24:12.037Z,138.90
2023-11-06T00:24:44.464Z,139.80
2023-11-06T00:25:19.409Z,139.45
2023-11-06T00:25:51.884Z,140.93
2023-11-06T00:26:24.247Z,140.65
2023-11-06T00:27:00.582Z,138.90
2023-11-06T00:27:33.624Z,137.48
2023-11-06T00:28:05.913Z,140.02
2023-11-06T00:28:38.391Z,138.05
2023-11-06T00:29:10.802Z,138.15
2023-11-06T00:29:43.628Z,139.18
2023-11-06T00:30:16.126Z,137.10
2023-11-06T00:30:48.937Z,138.05
2023-11-06T00:31:22.618Z,140.32
2023-11-06T00:31:55.323Z,138.05
2023-11-06T00:32:28.118Z,137.73
2023-11-06T00:33:00.591Z,139.55
2023-11-06T00:33:33.252Z,138.30
2023-11-06T00:34:05.827Z,138.85
2023-11-06T00:34:38.155Z,137.45
2023-11-06T00:35:15.033Z,139.65
2023-11-06T00:35:47.788Z,138.75
2023-11-06T00:36:20.429Z,137.82
2023-11-06T00:36:52.797Z,139.18
2023-11-06T00:37:25.359Z,140.18
2023-11-06T00:37:57.699Z,139.02
2023-11-06T00:38:30.124Z,139.25
2023-11-06T00:39:02.458Z,139.85
2023-11-06T00:39:37.442Z,138.10
2023-11-06T00:40:09.927Z,139.00
2023-11-06T00:40:42.426Z,139.43
2023-11-06T00:41:15.647Z,139.95
2023-11-06T00:41:47.980Z,139.70
2023-11-06T00:42:20.299Z,141.05
2023-11-06T00:42:52.687Z,139.80
2023-11-06T00:43:25.031Z,137.13
2023-11-06T00:43:57.435Z,138.50
2023-11-06T00:44:29.746Z,138.98
2023-11-06T00:45:03.872Z,139.98
2023-11-06T00:45:36.362Z,139.93
2023-11-06T00:46:08.787Z,139.52
2023-11-06T00:46:41.154Z,137.93
2023-11-06T00:47:13.552Z,138.90
2023-11-06T00:47:46.278Z,139.70
2023-11-06T00:48:18.808Z,138.48
2023-11-06T00:48:51.332Z,137.15
2023-11-06T00:49:23.922Z,138.20
2023-11-06T00:49:56.238Z,137.77
2023-11-06T00:50:28.616Z,138.40
2023-11-06T00:51:01.121Z,139.32
2023-11-06T00:51:33.423Z,138.02
2023-11-06T00:52:05.883Z,137.13
2023-11-06T00:52:38.170Z,138.48
2023-11-06T00:53:10.533Z,139.70
2023-11-06T00:53:42.899Z,139.32
2023-11-06T00:54:17.997Z,138.32
2023-11-06T00:54:50.563Z,138.02
2023-11-06T00:55:23.230Z,139.20
2023-11-06T00:55:55.641Z,138.93
2023-11-06T00:56:27.995Z,136.60
2023-11-06T00:57:01.501Z,138.73
2023-11-06T00:57:33.887Z,138.68
2023-11-06T00:58:06.254Z,137.88
2023-11-06T00:58:38.678Z,138.10
2023-11-06T00:59:11.169Z,137.98
2023-11-06T00:59:44.459Z,138.40
2023-11-06T01:00:17.691Z,139.43
2023-11-06T01:00:50.573Z,138.30
2023-11-06T01:01:22.964Z,138.25
2023-11-06T01:01:56.560Z,138.32
2023-11-06T01:02:30.369Z,138.93
2023-11-06T01:03:02.964Z,137.25
2023-11-06T01:03:35.332Z,138.55
2023-11-06T01:04:11.057Z,140.77
2023-11-06T01:04:44.163Z,139.40
2023-11-06T01:05:17.408Z,138.48
2023-11-06T01:05:49.798Z,138.18
2023-11-06T01:06:22.138Z,137.18
2023-11-06T01:06:54.922Z,137.98
2023-11-06T01:07:27.252Z,137.10
2023-11-06T01:07:59.558Z,138.02
2023-11-06T01:08:31.898Z,137.68
2023-11-06T01:09:04.297Z,139.32
2023-11-06T01:09:37.274Z,140.48
2023-11-06T01:10:10.115Z,139.88
2023-11-06T01:10:42.403Z,137.95
2023-11-06T01:11:15.515Z,137.48
2023-11-06T01:11:50.591Z,138.65
2023-11-06T01:12:23.575Z,138.70
2023-11-06T01:12:56.004Z,137.35
2023-11-06T01:13:28.286Z,137.48
2023-11-06T01:14:00.772Z,137.57
2023-11-06T01:14:33.107Z,139.98
2023-11-06T01:15:05.630Z,138.63
2023-11-06T01:15:38.862Z,138.90
2023-11-06T01:16:11.150Z,137.20
2023-11-06T01:16:44.012Z,139.98
2023-11-06T01:17:16.570Z,138.25
2023-11-06T01:17:49.118Z,139.90
2023-11-06T01:18:54.510Z,139.45
2023-11-06T01:19:26.861Z,137.05
2023-11-06T01:19:59.212Z,139.40
2023-11-06T01:20:31.610Z,139.85
2023-11-06T01:21:04.044Z,138.70
2023-11-06T01:21:36.388Z,137.20
2023-11-06T01:22:08.736Z,137.30
2023-11-06T01:22:41.980Z,136.70
2023-11-06T01:23:14.676Z,137.82
2023-11-06T01:23:46.987Z,138.55
2023-11-06T01:24:19.641Z,137.90
2023-11-06T01:24:52.124Z,138.40
2023-11-06T01:25:24.595Z,138.40
2023-11-06T01:25:57.539Z,139.38
2023-11-06T01:26:29.869Z,140.55
2023-11-06T01:27:02.235Z,138.93
2023-11-06T01:27:34.582Z,139.05
2023-11-06T01:28:07.743Z,139.13
2023-11-06T01:28:40.086Z,138.20
2023-11-06T01:29:12.934Z,136.73
2023-11-06T01:29:45.455Z,137.90
2023-11-06T01:30:19.525Z,137.90
2023-11-06T01:30:51.870Z,138.43
2023-11-06T01:31:24.262Z,139.45
2023-11-06T01:31:56.602Z,138.82
2023-11-06T01:32:29.584Z,138.13
2023-11-06T01:33:02.344Z,138.60
2023-11-06T01:33:34.919Z,138.27
2023-11-06T01:34:07.741Z,139.77
2023-11-06T01:34:40.108Z,137.55
2023-11-06T01:35:13.593Z,138.77
2023-11-06T01:35:45.943Z,138.90
2023-11-06T01:36:18.575Z,138.30
2023-11-06T01:36:51.024Z,139.45
2023-11-06T01:37:23.417Z,138.15
2023-11-06T01:37:55.795Z,138.45
2023-11-06T01:38:28.199Z,139.40
2023-11-06T01:39:00.586Z,137.43
2023-11-06T01:39:32.987Z,138.75
2023-11-06T01:40:07.709Z,137.02
2023-11-06T01:40:40.224Z,138.80
2023-11-06T01:41:12.703Z,136.80
2023-11-06T01:41:46.450Z,138.18
2023-11-06T01:42:18.791Z,141.32
2023-11-06T01:42:53.728Z,140.52
2023-11-06T01:43:26.175Z,138.57
2023-11-06T01:43:58.508Z,140.40
2023-11-06T01:44:31.046Z,138.10
2023-11-06T01:45:03.929Z,138.35
2023-11-06T01:45:37.036Z,138.32
2023-11-06T01:46:12.492Z,138.45
2023-11-06T01:46:44.923Z,138.05
2023-11-06T01:47:17.644Z,139.32
2023-11-06T01:47:52.235Z,139.80
2023-11-06T01:48:27.024Z,141.70
2023-11-06T01:49:01.379Z,137.55
2023-11-06T01:49:33.946Z,138.75
2023-11-06T01:50:09.176Z,137.00
2023-11-06T01:50:42.612Z,138.88
2023-11-06T01:51:15.015Z,139.45
2023-11-06T01:51:47.736Z,137.15
2023-11-06T01:52:21.683Z,138.60
2023-11-06T01:52:54.157Z,138.85
2023-11-06T01:53:27.459Z,140.13
2023-11-06T01:54:00.878Z,138.05
2023-11-06T01:54:33.318Z,138.60
2023-11-06T01:55:05.952Z,137.90
2023-11-06T01:55:40.257Z,137.32
2023-11-06T01:56:13.083Z,137.98
2023-11-06T01:56:45.608Z,137.68
2023-11-06T01:57:19.087Z,139.75
2023-11-06T01:57:51.434Z,137.82
2023-11-06T01:58:23.816Z,136.95
2023-11-06T01:58:56.260Z,139.52
2023-11-06T01:59:28.609Z,137.90
2023-11-06T02:00:01.181Z,138.50
2023-11-06T02:00:33.709Z,137.93
2023-11-06T02:01:06.601Z,138.48
2023-11-06T02:01:41.471Z,138.45
2023-11-06T02:02:16.299Z,137.90
2023-11-06T02:02:49.184Z,137.88
2023-11-06T02:03:22.734Z,138.18
2023-11-06T02:03:55.711Z,138.95
2023-11-06T02:04:29.433Z,140.90
2023-11-06T02:05:02.045Z,139.75
2023-11-06T02:05:35.261Z,138.13
2023-11-06T02:06:08.170Z,138.85
2023-11-06T02:06:41.405Z,138.55
2023-11-06T02:07:13.911Z,139.40
2023-11-06T02:07:47.182Z,140.27
2023-11-06T02:08:19.910Z,139.55
2023-11-06T02:08:52.253Z,137.25
2023-11-06T02:09:26.979Z,138.13
2023-11-06T02:09:59.509Z,138.70
2023-11-06T02:10:32.710Z,138.35
2023-11-06T02:11:05.692Z,137.57
2023-11-06T02:11:38.177Z,139.18
2023-11-06T02:12:11.770Z,138.88
2023-11-06T02:12:45.977Z,137.85
2023-11-06T02:13:19.026Z,137.45
2023-11-06T02:13:51.352Z,138.35
2023-11-06T02:14:23.728Z,137.27
2023-11-06T02:14:56.528Z,137.52
2023-11-06T02:15:29.507Z,139.10
2023-11-06T02:16:01.872Z,137.85
2023-11-06T02:16:34.232Z,136.90
2023-11-06T02:17:06.585Z,139.30
2023-11-06T02:17:38.974Z,137.82
2023-11-06T02:18:11.576Z,138.63
2023-11-06T02:18:44.398Z,137.43
2023-11-06T02:19:16.767Z,137.55
2023-11-06T02:19:50.170Z,139.20
2023-11-06T02:20:23.320Z,138.52
2023-11-06T02:20:56.968Z,139.35
2023-11-06T02:21:29.645Z,138.35
2023-11-06T02:22:02.164Z,138.35
2023-11-06T02:22:34.752Z,137.65
2023-11-06T02:23:10.179Z,140.52
2023-11-06T02:23:42.933Z,139.02
2023-11-06T02:24:15.274Z,137.77
2023-11-06T02:24:49.215Z,139.35
2023-11-06T02:25:23.498Z,138.65
2023-11-06T02:25:55.943Z,138.05
2023-11-06T02:26:28.280Z,140.30
2023-11-06T02:27:00.569Z,140.68
2023-11-06T02:27:32.849Z,138.27
2023-11-06T02:28:05.301Z,138.63
2023-11-06T02:28:38.142Z,139.05
2023-11-06T02:29:10.479Z,139.07
2023-11-06T02:29:43.320Z,138.10
2023-11-06T02:30:15.625Z,137.68
2023-11-06T02:30:53.295Z,137.15
2023-11-06T02:31:25.712Z,139.02
2023-11-06T02:31:58.798Z,141.63
2023-11-06T02:32:33.169Z,139.45
2023-11-06T02:33:05.829Z,138.85
2023-11-06T02:33:38.143Z,138.32
2023-11-06T02:34:10.546Z,137.52
2023-11-06T02:34:43.306Z,138.65
2023-11-06T02:35:15.797Z,138.85
2023-11-06T02:35:49.057Z,138.73
2023-11-06T02:36:21.364Z,139.23
2023-11-06T02:36:55.170Z,137.93
2023-11-06T02:37:27.543Z,139.70
2023-11-06T02:37:59.850Z,139.98
2023-11-06T02:38:32.287Z,138.43
2023-11-06T02:39:04.787Z,138.95
2023-11-06T02:39:37.931Z,139.52
2023-11-06T02:40:14.044Z,138.32
2023-11-06T02:40:46.718Z,138.90
2023-11-06T02:41:20.572Z,139.57
2023-11-06T02:41:53.056Z,137.20
2023-11-06T02:42:25.383Z,139.93
2023-11-06T02:42:57.709Z,139.00
2023-11-06T02:43:30.048Z,139.10
2023-11-06T02:44:02.655Z,136.27
2023-11-06T02:44:34.981Z,137.43
2023-11-06T02:45:08.621Z,137.63
2023-11-06T02:45:41.159Z,138.57
2023-11-06T02:46:13.872Z,135.82
2023-11-06T02:46:46.342Z,138.88
2023-11-06T02:47:18.761Z,136.93
2023-11-06T02:47:51.139Z,138.45
2023-11-06T02:48:23.741Z,138.90
2023-11-06T02:48:56.140Z,138.48
2023-11-06T02:49:28.590Z,138.02
2023-11-06T02:50:00.910Z,137.65
2023-11-06T02:50:33.359Z,137.70
2023-11-06T02:51:05.775Z,138.98
2023-11-06T02:51:38.392Z,136.80
2023-11-06T02:52:10.754Z,138.40
2023-11-06T02:52:43.887Z,137.40
2023-11-06T02:53:16.594Z,137.10
2023-11-06T02:53:49.025Z,140.60
2023-11-06T02:54:23.951Z,138.48
2023-11-06T02:54:56.291Z,137.77
2023-11-06T02:55:28.605Z,138.20
2023-11-06T02:56:01.733Z,137.40
2023-11-06T02:56:36.988Z,137.80
2023-11-06T02:57:09.427Z,137.80
2023-11-06T02:57:41.953Z,137.98
2023-11-06T02:58:14.682Z,137.77
2023-11-06T02:58:47.226Z,139.55
2023-11-06T02:59:19.964Z,138.23
2023-11-06T02:59:52.315Z,139.82
2023-11-06T03:00:24.779Z,138.35
2023-11-06T03:00:57.193Z,138.05
2023-11-06T03:01:29.483Z,137.25
2023-11-06T03:02:03.323Z,138.95
2023-11-06T03:02:35.996Z,138.40
2023-11-06T03:03:08.708Z,138.35
2023-11-06T03:03:41.396Z,139.40
2023-11-06T03:04:13.786Z,137.45
2023-11-06T03:04:46.245Z,139.73
2023-11-06T03:05:20.202Z,138.32
2023-11-06T03:05:52.898Z,138.27
2023-11-06T03:06:28.926Z,138.52
2023-11-06T03:07:01.404Z,139.27
2023-11-06T03:07:34.310Z,138.85
2023-11-06T03:08:06.790Z,137.15
2023-11-06T03:08:39.219Z,138.88
2023-11-06T03:09:13.386Z,137.70
2023-11-06T03:09:47.548Z,139.82
2023-11-06T03:10:20.153Z,140.65
2023-11-06T03:10:52.809Z,139.98
2023-11-06T03:11:25.728Z,138.15
2023-11-06T03:11:58.051Z,138.63
2023-11-06T03:12:30.501Z,138.98
2023-11-06T03:13:02.863Z,139.02
2023-11-06T03:13:35.187Z,139.02
2023-11-06T03:14:07.638Z,139.50
2023-11-06T03:14:40.042Z,138.55
2023-11-06T03:15:12.649Z,138.80
2023-11-06T03:15:45.482Z,140.15
2023-11-06T03:16:18.595Z,138.90
2023-11-06T03:16:50.966Z,138.90
2023-11-06T03:17:23.766Z,139.38
2023-11-06T03:17:56.148Z,138.95
2023-11-06T03:18:28.678Z,139.75
2023-11-06T03:19:01.215Z,138.68
2023-11-06T03:19:34.896Z,139.73
2023-11-06T03:20:12.349Z,138.43
2023-11-06T03:20:44.954Z,139.57
2023-11-06T03:21:17.354Z,140.63
2023-11-06T03:21:52.906Z,140.25
2023-11-06T03:22:25.233Z,141.75
2023-11-06T03:22:57.645Z,139.57
2023-11-06T03:23:30.040Z,140.20
2023-11-06T03:24:02.438Z,139.52
2023-11-06T03:24:35.253Z,137.57
2023-11-06T03:25:10.796Z,140.20
2023-11-06T03:25:43.223Z,139.57
2023-11-06T03:26:16.010Z,140.43
2023-11-06T03:26:48.338Z,139.15
2023-11-06T03:27:22.246Z,140.73
2023-11-06T03:27:54.536Z,138.35
2023-11-06T03:28:26.839Z,140.27
2023-11-06T03:28:59.345Z,139.75
2023-11-06T03:29:32.050Z,138.82
2023-11-06T03:30:05.635Z,137.20
2023-11-06T03:30:38.849Z,137.20
2023-11-06T03:31:11.485Z,140.43
2023-11-06T03:31:43.966Z,139.90
2023-11-06T03:32:16.369Z,141.45
2023-11-06T03:32:48.895Z,140.30
2023-11-06T03:33:21.341Z,138.30
2023-11-06T03:33:54.217Z,139.32
2023-11-06T03:34:26.997Z,139.38
2023-11-06T03:34:59.375Z,140.98
2023-11-06T03:35:32.047Z,138.80
2023-11-06T03:36:04.989Z,139.07
2023-11-06T03:36:43.673Z,139.18
2023-11-06T03:37:16.108Z,139.25
2023-11-06T03:37:48.683Z,140.75
2023-11-06T03:38:21.617Z,137.52
2023-11-06T03:38:53.927Z,136.10
2023-11-06T03:39:26.270Z,136.35
2023-11-06T03:39:58.931Z,135.43
2023-11-06T03:40:31.343Z,138.55
2023-11-06T03:41:05.023Z,138.05
2023-11-06T03:41:37.979Z,138.35
2023-11-06T03:42:10.761Z,138.82
2023-11-06T03:42:43.039Z,138.30
2023-11-06T03:43:15.365Z,140.77
2023-11-06T03:43:53.347Z,140.00
2023-11-06T03:45:00.488Z,140.23
2023-11-06T03:45:32.816Z,139.27
2023-11-06T03:46:05.271Z,138.70
2023-11-06T03:46:39.322Z,138.02
2023-11-06T03:47:11.847Z,139.88
2023-11-06T03:47:44.173Z,138.07
2023-11-06T03:48:16.779Z,138.80
2023-11-06T03:48:49.228Z,140.35
2023-11-06T03:49:22.570Z,140.27
2023-11-06T03:49:55.431Z,137.43
2023-11-06T03:50:27.949Z,138.05
2023-11-06T03:51:00.877Z,137.35
2023-11-06T03:51:33.238Z,139.35
2023-11-06T03:52:07.190Z,138.45
2023-11-06T03:52:39.564Z,139.73
2023-11-06T03:53:11.976Z,138.60
2023-11-06T03:53:44.394Z,140.35
2023-11-06T03:54:16.694Z,140.38
2023-11-06T03:54:49.162Z,139.35
2023-11-06T03:55:21.487Z,137.95
2023-11-06T03:55:53.739Z,139.07
2023-11-06T03:56:26.042Z,138.43
2023-11-06T03:56:58.366Z,138.80
2023-11-06T03:57:30.821Z,137.88
2023-11-06T03:58:03.607Z,139.05
2023-11-06T03:58:35.934Z,138.88
2023-11-06T03:59:08.275Z,139.07
2023-11-06T03:59:41.303Z,141.05
2023-11-06T04:00:13.954Z,140.25
2023-11-06T04:00:47.705Z,139.27
2023-11-06T04:01:20.093Z,137.85
2023-11-06T04:01:52.602Z,139.77
2023-11-06T04:02:25.371Z,138.75
2023-11-06T04:02:58.202Z,138.07
2023-11-06T04:03:30.891Z,138.60
2023-11-06T04:04:04.079Z,138.23
2023-11-06T04:04:36.533Z,137.60
2023-11-06T04:05:09.583Z,139.77
2023-11-06T04:05:42.110Z,138.95
2023-11-06T04:06:14.656Z,138.23
2023-11-06T04:06:47.226Z,138.43
2023-11-06T04:07:19.641Z,140.57
2023-11-06T04:07:52.245Z,139.68
2023-11-06T04:08:24.592Z,139.75
2023-11-06T04:08:57.480Z,139.05
2023-11-06T04:09:29.991Z,138.57
2023-11-06T04:10:02.314Z,139.93
2023-11-06T04:10:34.824Z,140.20
2023-11-06T04:11:07.234Z,138.45
2023-11-06T04:11:39.603Z,137.13
2023-11-06T04:12:11.904Z,139.05
2023-11-06T04:12:44.421Z,138.95
2023-11-06T04:13:16.755Z,139.68
2023-11-06T04:13:49.359Z,137.98
2023-11-06T04:14:21.777Z,139.35
2023-11-06T04:14:55.255Z,138.50
2023-11-06T04:15:27.533Z,140.27
2023-11-06T04:16:00.554Z,139.02
2023-11-06T04:16:33.214Z,138.30
2023-11-06T04:17:05.656Z,138.50
2023-11-06T04:17:41.294Z,139.23
2023-11-06T04:18:13.881Z,139.32
2023-11-06T04:18:46.232Z,138.35
2023-11-06T04:19:18.551Z,138.73
2023-11-06T04:19:51.351Z,138.55
2023-11-06T04:20:23.735Z,139.15
2023-11-06T04:20:56.096Z,140.25
2023-11-06T04:21:28.475Z,140.02
2023-11-06T04:22:00.769Z,141.32
2023-11-06T04:22:33.147Z,138.65
2023-11-06T04:23:05.711Z,139.10
2023-11-06T04:23:38.067Z,138.30
2023-11-06T04:24:11.472Z,141.55
2023-11-06T04:24:43.783Z,138.38
2023-11-06T04:25:16.324Z,138.93
2023-11-06T04:25:50.155Z,137.75
2023-11-06T04:26:22.586Z,141.43
2023-11-06T04:26:54.905Z,141.40
2023-11-06T04:27:27.206Z,141.23
2023-11-06T04:27:59.511Z,138.45
2023-11-06T04:28:32.720Z,140.35
2023-11-06T04:29:05.021Z,141.43
2023-11-06T04:29:37.558Z,140.50
2023-11-06T04:30:10.282Z,139.48
2023-11-06T04:30:43.972Z,139.07
2023-11-06T04:31:16.662Z,139.85
2023-11-06T04:31:48.966Z,139.13
2023-11-06T04:32:22.025Z,140.70
2023-11-06T04:32:54.418Z,141.30
2023-11-06T04:33:26.769Z,139.77
2023-11-06T04:33:59.279Z,139.93
2023-11-06T04:34:31.597Z,139.02
2023-11-06T04:35:04.428Z,141.35
2023-11-06T04:35:36.953Z,138.63
2023-11-06T04:36:10.711Z,139.90
2023-11-06T04:36:43.071Z,140.45
2023-11-06T04:37:15.438Z,140.43
2023-11-06T04:37:47.981Z,142.07
2023-11-06T04:38:20.437Z,139.45
2023-11-06T04:38:54.115Z,139.23
2023-11-06T04:39:26.505Z,139.18
2023-11-06T04:39:59.145Z,138.82
2023-11-06T04:40:31.772Z,140.38
2023-11-06T04:41:04.195Z,138.88
2023-11-06T04:41:36.515Z,140.60
2023-11-06T04:42:11.239Z,140.27
2023-11-06T04:42:43.736Z,139.80
2023-11-06T04:43:16.106Z,141.55
2023-11-06T04:43:48.825Z,141.00
2023-11-06T04:44:21.898Z,138.88
2023-11-06T04:44:54.286Z,141.13
2023-11-06T04:45:26.589Z,140.13
2023-11-06T04:45:58.897Z,140.52
2023-11-06T04:46:31.197Z,139.95
2023-11-06T04:47:03.655Z,139.95
2023-11-06T04:47:36.501Z,139.38
2023-11-06T04:48:08.913Z,140.30
2023-11-06T04:48:41.641Z,142.63
2023-11-06T04:49:14.098Z,141.30
2023-11-06T04:49:46.496Z,140.23
2023-11-06T04:50:19.567Z,143.07
2023-11-06T04:50:51.909Z,139.88
2023-11-06T04:51:24.193Z,140.02
2023-11-06T04:51:56.671Z,139.25
2023-11-06T04:52:29.638Z,139.20
2023-11-06T04:53:01.939Z,138.90
2023-11-06T04:53:35.009Z,141.70
2023-11-06T04:54:07.322Z,140.57
2023-11-06T04:54:42.380Z,140.65
2023-11-06T04:55:15.205Z,139.60
2023-11-06T04:55:49.138Z,139.98
2023-11-06T04:56:21.858Z,140.95
2023-11-06T04:56:54.489Z,141.80
2023-11-06T04:57:26.913Z,139.35
2023-11-06T04:57:59.290Z,138.05
2023-11-06T04:58:31.774Z,140.40
2023-11-06T04:59:05.489Z,139.35
2023-11-06T04:59:38.728Z,140.77
2023-11-06T05:00:11.950Z,141.90
2023-11-06T05:00:45.421Z,139.82
2023-11-06T05:01:18.198Z,141.32
2023-11-06T05:01:50.499Z,140.55
2023-11-06T05:02:22.846Z,139.95
2023-11-06T05:02:55.220Z,138.90
2023-11-06T05:03:27.745Z,140.85
2023-11-06T05:04:00.178Z,140.30
2023-11-06T05:04:32.783Z,139.93
2023-11-06T05:05:08.751Z,141.73
2023-11-06T05:05:42.238Z,140.80
2023-11-06T05:06:14.761Z,139.68
2023-11-06T05:06:47.117Z,140.68
2023-11-06T05:07:19.454Z,140.38
2023-11-06T05:07:51.891Z,139.90
2023-11-06T05:08:24.238Z,141.40
2023-11-06T05:08:56.610Z,139.25
2023-11-06T05:09:29.028Z,138.93
2023-11-06T05:10:01.329Z,138.63
2023-11-06T05:10:33.887Z,141.15
2023-11-06T05:11:06.858Z,139.70
2023-11-06T05:11:39.278Z,140.10
2023-11-06T05:12:11.707Z,139.45
2023-11-06T05:12:44.028Z,139.07
2023-11-06T05:13:16.483Z,141.80
2023-11-06T05:13:52.701Z,137.82
2023-11-06T05:14:25.205Z,139.30
2023-11-06T05:14:57.622Z,139.18
2023-11-06T05:15:29.979Z,140.57
2023-11-06T05:16:02.267Z,141.68
2023-11-06T05:16:34.603Z,140.45
2023-11-06T05:17:07.032Z,139.90
2023-11-06T05:17:39.541Z,139.85
2023-11-06T05:18:11.981Z,140.20
2023-11-06T05:18:44.658Z,141.00
2023-11-06T05:19:16.986Z,140.98
2023-11-06T05:19:49.345Z,140.60
2023-11-06T05:20:21.895Z,141.13
2023-11-06T05:20:54.266Z,140.98
2023-11-06T05:21:27.203Z,141.00
2023-11-06T05:21:59.706Z,141.00
2023-11-06T05:22:32.471Z,140.13
2023-11-06T05:23:04.858Z,140.32
2023-11-06T05:23:38.063Z,139.02
2023-11-06T05:24:10.404Z,139.75
2023-11-06T05:24:42.771Z,139.85
2023-11-06T05:25:15.171Z,140.05
2023-11-06T05:25:47.486Z,138.93
2023-11-06T05:26:19.800Z,139.13
2023-11-06T05:26:52.108Z,141.35
2023-11-06T05:27:24.407Z,139.23
2023-11-06T05:27:56.848Z,140.63
2023-11-06T05:28:29.381Z,141.65
2023-11-06T05:29:01.795Z,140.77
2023-11-06T05:29:34.632Z,140.20
2023-11-06T05:30:07.226Z,140.85
2023-11-06T05:30:39.565Z,142.93
2023-11-06T05:31:12.045Z,142.85
2023-11-06T05:31:44.348Z,146.40
2023-11-06T05:32:16.776Z,145.32
2023-11-06T05:32:49.214Z,149.13
2023-11-06T05:33:21.637Z,144.55
2023-11-06T05:33:54.102Z,142.48
2023-11-06T05:34:27.187Z,145.05
2023-11-06T05:35:01.659Z,144.60
2023-11-06T05:35:34.166Z,144.25
2023-11-06T05:36:07.932Z,142.50
2023-11-06T05:36:41.756Z,140.52
2023-11-06T05:37:14.053Z,140.55
2023-11-06T05:37:49.105Z,141.23
2023-11-06T05:38:21.550Z,142.02
2023-11-06T05:38:53.856Z,140.23
2023-11-06T05:39:26.214Z,140.93
2023-11-06T05:39:58.935Z,142.07
2023-11-06T05:40:31.256Z,142.88
2023-11-06T05:41:03.723Z,139.68
2023-11-06T05:41:36.278Z,140.38
2023-11-06T05:42:08.619Z,142.82
2023-11-06T05:42:41.020Z,143.15
2023-11-06T05:43:13.473Z,145.38
2023-11-06T05:43:45.774Z,143.02
2023-11-06T05:44:19.277Z,140.32
2023-11-06T05:44:51.925Z,143.27
2023-11-06T05:45:24.260Z,143.10
2023-11-06T05:45:58.123Z,141.50
2023-11-06T05:46:30.730Z,139.95
2023-11-06T05:47:03.269Z,143.68
2023-11-06T05:47:35.731Z,141.65
2023-11-06T05:48:08.224Z,140.82
2023-11-06T05:48:40.729Z,143.35
2023-11-06T05:49:13.682Z,142.18
2023-11-06T05:49:46.059Z,140.38
2023-11-06T05:50:18.679Z,141.13
2023-11-06T05:50:51.001Z,143.85
2023-11-06T05:51:23.406Z,145.02
2023-11-06T05:51:55.702Z,140.75
2023-11-06T05:52:30.161Z,141.35
2023-11-06T05:53:06.055Z,139.88
2023-11-06T05:53:39.046Z,141.68
2023-11-06T05:54:11.906Z,145.23
2023-11-06T05:54:44.261Z,146.68
2023-11-06T05:55:16.699Z,145.07
2023-11-06T05:55:49.436Z,143.48
2023-11-06T05:56:22.838Z,143.00
2023-11-06T05:56:56.404Z,143.32
2023-11-06T05:57:28.832Z,141.75
2023-11-06T05:58:02.551Z,143.13
2023-11-06T05:58:34.904Z,141.10
2023-11-06T05:59:07.263Z,141.95
2023-11-06T05:59:39.833Z,141.98
2023-11-06T06:00:16.876Z,143.82
2023-11-06T06:00:49.352Z,140.98
2023-11-06T06:01:22.045Z,141.98
2023-11-06T06:01:54.330Z,142.35
2023-11-06T06:02:26.733Z,142.65
2023-11-06T06:03:02.773Z,140.90
2023-11-06T06:03:35.374Z,145.20
2023-11-06T06:04:07.813Z,141.77
2023-11-06T06:04:40.197Z,141.75
2023-11-06T06:05:13.035Z,142.80
2023-11-06T06:05:45.529Z,141.48
2023-11-06T06:06:18.283Z,140.77
2023-11-06T06:06:52.421Z,142.43
2023-11-06T06:07:24.715Z,141.77
2023-11-06T06:07:57.030Z,142.30
2023-11-06T06:08:29.985Z,140.25
2023-11-06T06:09:02.611Z,140.45
2023-11-06T06:09:35.339Z,140.10
2023-11-06T06:10:08.007Z,139.80
2023-11-06T06:10:41.081Z,142.85
2023-11-06T06:11:13.966Z,142.27
2023-11-06T06:11:47.518Z,141.70
2023-11-06T06:12:19.802Z,141.43
2023-11-06T06:12:52.174Z,140.43
2023-11-06T06:13:24.473Z,141.32
2023-11-06T06:13:56.890Z,141.00
2023-11-06T06:14:29.296Z,139.98
2023-11-06T06:15:02.712Z,139.73
2023-11-06T06:15:36.055Z,140.20
2023-11-06T06:16:08.652Z,127.65
2023-11-06T06:16:41.015Z,124.45
2023-11-06T06:17:13.573Z,121.47
2023-11-06T06:17:45.981Z,123.47
2023-11-06T06:18:18.454Z,122.75
2023-11-06T06:18:51.464Z,121.28
2023-11-06T06:19:25.071Z,121.18
2023-11-06T06:19:57.509Z,122.25
2023-11-06T06:20:30.104Z,120.13
2023-11-06T06:21:02.417Z,122.38
2023-11-06T06:21:35.188Z,122.50
2023-11-06T06:22:07.574Z,120.80
2023-11-06T06:22:40.477Z,120.43
2023-11-06T06:23:12.814Z,120.53
2023-11-06T06:23:45.224Z,121.22
2023-11-06T06:24:18.715Z,120.85
2023-11-06T06:24:51.658Z,114.45
2023-11-06T06:25:24.025Z,110.88
2023-11-06T06:25:56.356Z,109.82
2023-11-06T06:26:30.766Z,110.32
2023-11-06T06:27:03.121Z,112.05
2023-11-06T06:27:36.094Z,111.43
2023-11-06T06:28:08.410Z,109.82
2023-11-06T06:28:40.774Z,109.85
2023-11-06T06:29:13.176Z,111.15
2023-11-06T06:29:46.909Z,111.13
2023-11-06T06:30:19.209Z,110.60
2023-11-06T06:30:51.697Z,110.35
2023-11-06T06:31:24.052Z,109.13
2023-11-06T06:31:56.680Z,110.97
2023-11-06T06:32:29.053Z,111.80
2023-11-06T06:33:01.616Z,110.97
2023-11-06T06:33:34.512Z,109.60
2023-11-06T06:34:06.845Z,110.72
2023-11-06T06:34:42.378Z,110.65
2023-11-06T06:35:15.403Z,112.50
2023-11-06T06:35:47.797Z,111.30
2023-11-06T06:36:20.531Z,111.55
2023-11-06T06:36:52.920Z,109.47
2023-11-06T06:37:25.334Z,111.05
2023-11-06T06:37:57.584Z,110.40
2023-11-06T06:38:30.596Z,111.57
2023-11-06T06:39:06.899Z,110.97
2023-11-06T06:39:39.371Z,114.10
2023-11-06T06:40:12.304Z,112.07
2023-11-06T06:40:44.682Z,112.28
2023-11-06T06:41:17.058Z,114.05
2023-11-06T06:41:49.472Z,111.28
2023-11-06T06:42:22.199Z,110.82
2023-11-06T06:42:54.626Z,111.68
2023-11-06T06:43:26.913Z,113.78
2023-11-06T06:43:59.262Z,115.03
2023-11-06T06:44:31.670Z,115.22
2023-11-06T06:45:06.162Z,120.30
2023-11-06T06:45:38.501Z,126.13
2023-11-06T06:46:11.034Z,129.55
2023-11-06T06:46:43.768Z,128.20
2023-11-06T06:47:16.096Z,130.05
2023-11-06T06:47:48.924Z,129.27
2023-11-06T06:48:21.826Z,129.95
2023-11-06T06:48:54.330Z,129.95
2023-11-06T06:49:27.722Z,128.23
2023-11-06T06:50:00.705Z,130.00
2023-11-06T06:50:33.345Z,129.15